Portada
METAR-TAF:

METAR-TAF

Aeroports :

Santa Maria, Rio Grande do Sul, Brasil

latitud: 29-43S, longitud: 053-42W, altitud: 85 m

Observació

L'informe es va fer fa 1 hora i 20 minuts, a les 21:00 UTC
Vent 5 kt del Est
Temperatura 16°C
Humitat 72%
Pressió 1022 hPa
Visibilitat 10 km o més
sense núvols per sota de 1500 mi sense presència de cumulonimbus.

METAR: SBSM 182100Z 10005KT CAVOK 16/11 Q1022

Hora: 19:20 (22:20 UTC)

Pronòstic

L'informe es va fer fa 6 hores i 50 minuts, a les 15:30 UTC
Pronòstic vàlid del 18 a les 18 UTC al 19 a les 06 UTC
Vent 4 kt del Est/Sud-Est
Visibilitat 10 km o més
sense núvols per sota de 1500 mi sense presència de cumulonimbus.
Evolucionant progressivament
l' 18 a les 20 UTC al 18 a les 22 UTC
Vent 5 kt del Est

TAF: SBSM 181530Z 1818/1906 12004KT CAVOK TX22/1818Z TN10/1905Z BECMG 1820/1822 08005KT RMK PDV

Observacions i pronòstics meteorològics de més de 4000 aeroports (METAR i TAF).

Les estacions disponibles són els punts grocs i vermells al mapa.

Posi el ratolí al punt desitjat per veure el nom de l'estació.

Feu clic per veure les observacions i els pronòstics meteorològics.

Per canviar el mapa: feu clic els botons verds amb una creu de color negre per apropar; al botó verd amb un guió per allunyar la imatge; o en les fletxes verdes per a mapes adjacents.


METAR-TAF: